sensor_id;sensor_type;location;lat;lon;timestamp;temperature;humidity
5164;DHT22;2601;50.224;10.126;2022-11-11T00:00:28;4.20;99.90
5164;DHT22;2601;50.224;10.126;2022-11-11T00:02:55;4.10;99.90
5164;DHT22;2601;50.224;10.126;2022-11-11T00:05:21;4.10;99.90
5164;DHT22;2601;50.224;10.126;2022-11-11T00:07:47;4.10;99.90
5164;DHT22;2601;50.224;10.126;2022-11-11T00:10:13;4.00;99.90
5164;DHT22;2601;50.224;10.126;2022-11-11T00:12:38;3.90;99.90
5164;DHT22;2601;50.224;10.126;2022-11-11T00:15:05;3.90;99.90
5164;DHT22;2601;50.224;10.126;2022-11-11T00:17:32;3.90;99.90
5164;DHT22;2601;50.224;10.126;2022-11-11T00:20:17;3.80;99.90
5164;DHT22;2601;50.224;10.126;2022-11-11T00:23:03;3.80;99.90
5164;DHT22;2601;50.224;10.126;2022-11-11T00:25:53;3.80;99.90
5164;DHT22;2601;50.224;10.126;2022-11-11T00:28:19;3.90;99.90
5164;DHT22;2601;50.224;10.126;2022-11-11T00:30:45;3.90;99.90
5164;DHT22;2601;50.224;10.126;2022-11-11T00:33:11;3.80;99.90
5164;DHT22;2601;50.224;10.126;2022-11-11T00:35:36;3.70;99.90
5164;DHT22;2601;50.224;10.126;2022-11-11T00:38:17;3.60;99.90
5164;DHT22;2601;50.224;10.126;2022-11-11T00:41:01;3.70;99.90
5164;DHT22;2601;50.224;10.126;2022-11-11T00:43:27;3.60;99.90
5164;DHT22;2601;50.224;10.126;2022-11-11T00:45:53;3.70;99.90
5164;DHT22;2601;50.224;10.126;2022-11-11T00:48:19;3.70;99.90
5164;DHT22;2601;50.224;10.126;2022-11-11T00:51:04;3.70;99.90
5164;DHT22;2601;50.224;10.126;2022-11-11T00:53:30;3.70;99.90
5164;DHT22;2601;50.224;10.126;2022-11-11T00:56:04;3.70;99.90
5164;DHT22;2601;50.224;10.126;2022-11-11T00:58:30;3.80;99.90
5164;DHT22;2601;50.224;10.126;2022-11-11T01:00:56;3.70;99.90
5164;DHT22;2601;50.224;10.126;2022-11-11T01:03:22;3.50;99.90
5164;DHT22;2601;50.224;10.126;2022-11-11T01:05:48;3.60;99.90
5164;DHT22;2601;50.224;10.126;2022-11-11T01:08:14;3.60;99.90
5164;DHT22;2601;50.224;10.126;2022-11-11T01:10:39;3.70;99.90
5164;DHT22;2601;50.224;10.126;2022-11-11T01:13:24;3.80;99.90
5164;DHT22;2601;50.224;10.126;2022-11-11T01:16:01;3.80;99.90
5164;DHT22;2601;50.224;10.126;2022-11-11T01:18:27;3.80;99.90
5164;DHT22;2601;50.224;10.126;2022-11-11T01:21:23;3.80;99.90
5164;DHT22;2601;50.224;10.126;2022-11-11T01:23:50;3.70;99.90
5164;DHT22;2601;50.224;10.126;2022-11-11T01:26:18;3.60;99.90
5164;DHT22;2601;50.224;10.126;2022-11-11T01:28:52;3.40;99.90
5164;DHT22;2601;50.224;10.126;2022-11-11T01:31:19;3.60;99.90
5164;DHT22;2601;50.224;10.126;2022-11-11T01:33:46;3.60;99.90
5164;DHT22;2601;50.224;10.126;2022-11-11T01:36:14;3.70;99.90
5164;DHT22;2601;50.224;10.126;2022-11-11T01:38:40;3.60;99.90
5164;DHT22;2601;50.224;10.126;2022-11-11T01:41:10;3.60;99.90
5164;DHT22;2601;50.224;10.126;2022-11-11T01:43:55;3.60;99.90
5164;DHT22;2601;50.224;10.126;2022-11-11T01:46:28;3.60;99.90
5164;DHT22;2601;50.224;10.126;2022-11-11T01:49:01;3.60;99.90
5164;DHT22;2601;50.224;10.126;2022-11-11T01:54:38;3.50;99.90
5164;DHT22;2601;50.224;10.126;2022-11-11T02:00:03;3.60;99.90
5164;DHT22;2601;50.224;10.126;2022-11-11T02:02:36;3.60;99.90
5164;DHT22;2601;50.224;10.126;2022-11-11T02:05:06;3.50;99.90
5164;DHT22;2601;50.224;10.126;2022-11-11T02:07:52;3.60;99.90
5164;DHT22;2601;50.224;10.126;2022-11-11T02:10:23;3.60;99.90
5164;DHT22;2601;50.224;10.126;2022-11-11T02:12:50;3.60;99.90
5164;DHT22;2601;50.224;10.126;2022-11-11T02:15:35;3.70;99.90
5164;DHT22;2601;50.224;10.126;2022-11-11T02:18:02;3.80;99.90
5164;DHT22;2601;50.224;10.126;2022-11-11T02:20:33;3.70;99.90
5164;DHT22;2601;50.224;10.126;2022-11-11T02:25:32;3.70;99.90
5164;DHT22;2601;50.224;10.126;2022-11-11T02:28:02;3.60;99.90
5164;DHT22;2601;50.224;10.126;2022-11-11T02:30:28;3.60;99.90
5164;DHT22;2601;50.224;10.126;2022-11-11T02:32:54;3.60;99.90
5164;DHT22;2601;50.224;10.126;2022-11-11T02:35:23;3.70;99.90
5164;DHT22;2601;50.224;10.126;2022-11-11T02:37:51;3.80;99.90
5164;DHT22;2601;50.224;10.126;2022-11-11T02:40:33;3.80;99.90
5164;DHT22;2601;50.224;10.126;2022-11-11T02:43:00;3.90;99.90
5164;DHT22;2601;50.224;10.126;2022-11-11T02:45:26;4.00;99.90
5164;DHT22;2601;50.224;10.126;2022-11-11T02:47:52;3.90;99.90
5164;DHT22;2601;50.224;10.126;2022-11-11T02:50:18;3.80;99.90
5164;DHT22;2601;50.224;10.126;2022-11-11T02:52:43;3.80;99.90
5164;DHT22;2601;50.224;10.126;2022-11-11T02:55:09;4.00;99.90
5164;DHT22;2601;50.224;10.126;2022-11-11T02:57:36;4.10;99.90
5164;DHT22;2601;50.224;10.126;2022-11-11T03:00:04;4.10;99.90
5164;DHT22;2601;50.224;10.126;2022-11-11T03:02:30;4.20;99.90
5164;DHT22;2601;50.224;10.126;2022-11-11T03:04:57;4.00;99.90
5164;DHT22;2601;50.224;10.126;2022-11-11T03:07:23;3.80;99.90
5164;DHT22;2601;50.224;10.126;2022-11-11T03:09:49;3.80;99.90
5164;DHT22;2601;50.224;10.126;2022-11-11T03:12:16;3.80;99.90
5164;DHT22;2601;50.224;10.126;2022-11-11T03:14:42;3.90;99.90
5164;DHT22;2601;50.224;10.126;2022-11-11T03:17:08;3.80;99.90
5164;DHT22;2601;50.224;10.126;2022-11-11T03:19:53;3.90;99.90
5164;DHT22;2601;50.224;10.126;2022-11-11T03:22:39;3.90;99.90
5164;DHT22;2601;50.224;10.126;2022-11-11T03:25:05;3.90;99.90
5164;DHT22;2601;50.224;10.126;2022-11-11T03:27:49;3.90;99.90
5164;DHT22;2601;50.224;10.126;2022-11-11T03:30:15;4.00;99.90
5164;DHT22;2601;50.224;10.126;2022-11-11T03:32:42;4.00;99.90
5164;DHT22;2601;50.224;10.126;2022-11-11T03:35:08;3.90;99.90
5164;DHT22;2601;50.224;10.126;2022-11-11T03:37:35;3.90;99.90
5164;DHT22;2601;50.224;10.126;2022-11-11T03:40:19;3.90;99.90
5164;DHT22;2601;50.224;10.126;2022-11-11T03:42:45;3.90;99.90
5164;DHT22;2601;50.224;10.126;2022-11-11T03:45:11;4.00;99.90
5164;DHT22;2601;50.224;10.126;2022-11-11T03:47:36;4.00;99.90
5164;DHT22;2601;50.224;10.126;2022-11-11T03:50:02;4.10;99.90
5164;DHT22;2601;50.224;10.126;2022-11-11T03:52:28;4.10;99.90
5164;DHT22;2601;50.224;10.126;2022-11-11T03:54:54;4.20;99.90
5164;DHT22;2601;50.224;10.126;2022-11-11T03:57:20;4.10;99.90
5164;DHT22;2601;50.224;10.126;2022-11-11T03:59:57;4.20;99.90
5164;DHT22;2601;50.224;10.126;2022-11-11T04:02:23;4.20;99.90
5164;DHT22;2601;50.224;10.126;2022-11-11T04:05:07;4.20;99.90
5164;DHT22;2601;50.224;10.126;2022-11-11T04:07:51;4.20;99.90
5164;DHT22;2601;50.224;10.126;2022-11-11T04:10:36;4.20;99.90
5164;DHT22;2601;50.224;10.126;2022-11-11T04:13:02;4.20;99.90
5164;DHT22;2601;50.224;10.126;2022-11-11T04:15:47;4.30;99.90
5164;DHT22;2601;50.224;10.126;2022-11-11T04:18:37;4.20;99.90
5164;DHT22;2601;50.224;10.126;2022-11-11T04:21:22;4.20;99.90
5164;DHT22;2601;50.224;10.126;2022-11-11T04:24:07;4.20;99.90
5164;DHT22;2601;50.224;10.126;2022-11-11T04:26:56;4.30;99.90
5164;DHT22;2601;50.224;10.126;2022-11-11T04:29:22;4.30;99.90
5164;DHT22;2601;50.224;10.126;2022-11-11T04:34:48;4.40;99.90
5164;DHT22;2601;50.224;10.126;2022-11-11T04:37:15;4.40;99.90
5164;DHT22;2601;50.224;10.126;2022-11-11T04:39:41;4.30;99.90
5164;DHT22;2601;50.224;10.126;2022-11-11T04:42:26;4.30;99.90
5164;DHT22;2601;50.224;10.126;2022-11-11T04:44:52;4.30;99.90
5164;DHT22;2601;50.224;10.126;2022-11-11T04:47:37;4.30;99.90
5164;DHT22;2601;50.224;10.126;2022-11-11T04:50:04;4.40;99.90
5164;DHT22;2601;50.224;10.126;2022-11-11T04:52:30;4.50;99.90
5164;DHT22;2601;50.224;10.126;2022-11-11T04:54:57;4.50;99.90
5164;DHT22;2601;50.224;10.126;2022-11-11T04:57:46;4.60;99.90
5164;DHT22;2601;50.224;10.126;2022-11-11T05:00:15;4.60;99.90
5164;DHT22;2601;50.224;10.126;2022-11-11T05:02:41;4.70;99.90
5164;DHT22;2601;50.224;10.126;2022-11-11T05:05:26;4.80;99.90
5164;DHT22;2601;50.224;10.126;2022-11-11T05:07:52;4.80;99.90
5164;DHT22;2601;50.224;10.126;2022-11-11T05:10:37;4.90;99.90
5164;DHT22;2601;50.224;10.126;2022-11-11T05:13:03;4.90;99.90
5164;DHT22;2601;50.224;10.126;2022-11-11T05:15:48;4.80;99.90
5164;DHT22;2601;50.224;10.126;2022-11-11T05:18:33;4.70;99.90
5164;DHT22;2601;50.224;10.126;2022-11-11T05:21:24;4.70;99.90
5164;DHT22;2601;50.224;10.126;2022-11-11T05:23:52;4.70;99.90
5164;DHT22;2601;50.224;10.126;2022-11-11T05:26:36;4.70;99.90
5164;DHT22;2601;50.224;10.126;2022-11-11T05:29:02;4.60;99.90
5164;DHT22;2601;50.224;10.126;2022-11-11T05:31:29;4.60;99.90
5164;DHT22;2601;50.224;10.126;2022-11-11T05:33:55;4.60;99.90
5164;DHT22;2601;50.224;10.126;2022-11-11T05:36:20;4.60;99.90
5164;DHT22;2601;50.224;10.126;2022-11-11T05:38:46;4.60;99.90
5164;DHT22;2601;50.224;10.126;2022-11-11T05:41:12;4.60;99.90
5164;DHT22;2601;50.224;10.126;2022-11-11T05:43:38;4.70;99.90
5164;DHT22;2601;50.224;10.126;2022-11-11T05:46:03;4.60;99.90
5164;DHT22;2601;50.224;10.126;2022-11-11T05:48:30;4.60;99.90
5164;DHT22;2601;50.224;10.126;2022-11-11T05:50:59;4.60;99.90
5164;DHT22;2601;50.224;10.126;2022-11-11T05:53:25;4.60;99.90
5164;DHT22;2601;50.224;10.126;2022-11-11T05:55:52;4.70;99.90
5164;DHT22;2601;50.224;10.126;2022-11-11T05:58:19;4.70;99.90
5164;DHT22;2601;50.224;10.126;2022-11-11T06:00:45;4.70;99.90
5164;DHT22;2601;50.224;10.126;2022-11-11T06:03:11;4.80;99.90
5164;DHT22;2601;50.224;10.126;2022-11-11T06:05:37;4.80;99.90
5164;DHT22;2601;50.224;10.126;2022-11-11T06:08:03;4.70;99.90
5164;DHT22;2601;50.224;10.126;2022-11-11T06:10:29;4.70;99.90
5164;DHT22;2601;50.224;10.126;2022-11-11T06:12:56;4.70;99.90
5164;DHT22;2601;50.224;10.126;2022-11-11T06:15:36;4.70;99.90
5164;DHT22;2601;50.224;10.126;2022-11-11T06:18:03;4.80;99.90
5164;DHT22;2601;50.224;10.126;2022-11-11T06:20:29;4.80;99.90
5164;DHT22;2601;50.224;10.126;2022-11-11T06:22:56;4.70;99.90
5164;DHT22;2601;50.224;10.126;2022-11-11T06:25:27;4.90;99.90
5164;DHT22;2601;50.224;10.126;2022-11-11T06:28:12;4.90;99.90
5164;DHT22;2601;50.224;10.126;2022-11-11T06:30:39;4.80;99.90
5164;DHT22;2601;50.224;10.126;2022-11-11T06:33:05;4.70;99.90
5164;DHT22;2601;50.224;10.126;2022-11-11T06:35:42;4.70;99.90
5164;DHT22;2601;50.224;10.126;2022-11-11T06:38:08;4.70;99.90
5164;DHT22;2601;50.224;10.126;2022-11-11T06:40:33;4.70;99.90
5164;DHT22;2601;50.224;10.126;2022-11-11T06:42:59;4.80;99.90
5164;DHT22;2601;50.224;10.126;2022-11-11T06:45:27;4.90;99.90
5164;DHT22;2601;50.224;10.126;2022-11-11T06:47:53;4.90;99.90
5164;DHT22;2601;50.224;10.126;2022-11-11T06:50:19;5.00;99.90
5164;DHT22;2601;50.224;10.126;2022-11-11T06:52:45;5.00;99.90
5164;DHT22;2601;50.224;10.126;2022-11-11T06:55:11;4.90;99.90
5164;DHT22;2601;50.224;10.126;2022-11-11T06:57:37;4.90;99.90
5164;DHT22;2601;50.224;10.126;2022-11-11T07:00:04;4.90;99.90
5164;DHT22;2601;50.224;10.126;2022-11-11T07:02:30;4.90;99.90
5164;DHT22;2601;50.224;10.126;2022-11-11T07:04:56;5.00;99.90
5164;DHT22;2601;50.224;10.126;2022-11-11T07:07:22;5.00;99.90
5164;DHT22;2601;50.224;10.126;2022-11-11T07:09:48;5.10;99.90
5164;DHT22;2601;50.224;10.126;2022-11-11T07:12:13;5.10;99.90
5164;DHT22;2601;50.224;10.126;2022-11-11T07:14:39;5.30;99.90
5164;DHT22;2601;50.224;10.126;2022-11-11T07:17:05;5.30;99.90
5164;DHT22;2601;50.224;10.126;2022-11-11T07:19:30;5.40;99.90
5164;DHT22;2601;50.224;10.126;2022-11-11T07:21:56;5.40;99.90
5164;DHT22;2601;50.224;10.126;2022-11-11T07:24:22;5.50;99.90
5164;DHT22;2601;50.224;10.126;2022-11-11T07:26:47;5.50;99.90
5164;DHT22;2601;50.224;10.126;2022-11-11T07:29:13;5.60;99.90
5164;DHT22;2601;50.224;10.126;2022-11-11T07:31:42;5.60;99.90
5164;DHT22;2601;50.224;10.126;2022-11-11T07:34:08;5.60;99.90
5164;DHT22;2601;50.224;10.126;2022-11-11T07:36:34;5.60;99.90
5164;DHT22;2601;50.224;10.126;2022-11-11T07:38:59;5.50;99.90
5164;DHT22;2601;50.224;10.126;2022-11-11T07:41:25;5.60;99.90
5164;DHT22;2601;50.224;10.126;2022-11-11T07:43:51;5.80;99.90
5164;DHT22;2601;50.224;10.126;2022-11-11T07:46:17;5.90;99.90
5164;DHT22;2601;50.224;10.126;2022-11-11T07:48:43;5.80;99.90
5164;DHT22;2601;50.224;10.126;2022-11-11T07:51:09;5.80;99.90
5164;DHT22;2601;50.224;10.126;2022-11-11T07:53:34;5.70;99.90
5164;DHT22;2601;50.224;10.126;2022-11-11T07:56:00;5.80;99.90
5164;DHT22;2601;50.224;10.126;2022-11-11T07:58:26;5.80;99.90
5164;DHT22;2601;50.224;10.126;2022-11-11T08:00:51;5.80;99.90
5164;DHT22;2601;50.224;10.126;2022-11-11T08:03:17;5.80;99.90
5164;DHT22;2601;50.224;10.126;2022-11-11T08:05:43;5.70;99.90
5164;DHT22;2601;50.224;10.126;2022-11-11T08:08:10;5.80;99.90
5164;DHT22;2601;50.224;10.126;2022-11-11T08:10:36;5.90;99.90
5164;DHT22;2601;50.224;10.126;2022-11-11T08:13:02;5.90;99.90
5164;DHT22;2601;50.224;10.126;2022-11-11T08:15:47;6.00;99.90
5164;DHT22;2601;50.224;10.126;2022-11-11T08:18:13;6.00;99.90
5164;DHT22;2601;50.224;10.126;2022-11-11T08:20:39;6.00;99.90
5164;DHT22;2601;50.224;10.126;2022-11-11T08:23:05;6.10;99.90
5164;DHT22;2601;50.224;10.126;2022-11-11T08:25:35;6.10;99.90
5164;DHT22;2601;50.224;10.126;2022-11-11T08:28:04;6.20;99.90
5164;DHT22;2601;50.224;10.126;2022-11-11T08:30:31;6.30;99.90
5164;DHT22;2601;50.224;10.126;2022-11-11T08:33:01;6.30;99.90
5164;DHT22;2601;50.224;10.126;2022-11-11T08:35:27;6.40;99.90
5164;DHT22;2601;50.224;10.126;2022-11-11T08:37:54;6.50;99.90
5164;DHT22;2601;50.224;10.126;2022-11-11T08:40:20;6.60;99.90
5164;DHT22;2601;50.224;10.126;2022-11-11T08:42:46;6.60;99.90
5164;DHT22;2601;50.224;10.126;2022-11-11T08:45:11;6.80;99.90
5164;DHT22;2601;50.224;10.126;2022-11-11T08:47:37;6.90;99.90
5164;DHT22;2601;50.224;10.126;2022-11-11T08:50:05;6.90;99.90
5164;DHT22;2601;50.224;10.126;2022-11-11T08:52:31;6.90;99.90
5164;DHT22;2601;50.224;10.126;2022-11-11T08:54:57;6.90;99.90
5164;DHT22;2601;50.224;10.126;2022-11-11T08:57:25;7.00;99.90
5164;DHT22;2601;50.224;10.126;2022-11-11T08:59:51;7.30;99.90
5164;DHT22;2601;50.224;10.126;2022-11-11T09:02:16;7.30;99.90
5164;DHT22;2601;50.224;10.126;2022-11-11T09:04:42;7.40;99.90
5164;DHT22;2601;50.224;10.126;2022-11-11T09:07:09;7.40;99.90
5164;DHT22;2601;50.224;10.126;2022-11-11T09:09:35;7.20;99.90
5164;DHT22;2601;50.224;10.126;2022-11-11T09:12:01;7.10;99.90
5164;DHT22;2601;50.224;10.126;2022-11-11T09:14:27;6.90;99.90
5164;DHT22;2601;50.224;10.126;2022-11-11T09:16:53;6.90;99.90
5164;DHT22;2601;50.224;10.126;2022-11-11T09:19:18;7.00;99.90
5164;DHT22;2601;50.224;10.126;2022-11-11T09:21:44;7.10;99.90
5164;DHT22;2601;50.224;10.126;2022-11-11T09:24:10;7.20;99.90
5164;DHT22;2601;50.224;10.126;2022-11-11T09:26:36;7.20;99.90
5164;DHT22;2601;50.224;10.126;2022-11-11T09:29:01;7.30;99.90
5164;DHT22;2601;50.224;10.126;2022-11-11T09:31:27;7.20;99.90
5164;DHT22;2601;50.224;10.126;2022-11-11T09:33:53;7.10;99.90
5164;DHT22;2601;50.224;10.126;2022-11-11T09:36:19;7.10;99.90
5164;DHT22;2601;50.224;10.126;2022-11-11T09:38:45;7.20;99.90
5164;DHT22;2601;50.224;10.126;2022-11-11T09:41:19;7.30;99.90
5164;DHT22;2601;50.224;10.126;2022-11-11T09:43:47;7.50;99.90
5164;DHT22;2601;50.224;10.126;2022-11-11T09:46:32;7.60;99.90
5164;DHT22;2601;50.224;10.126;2022-11-11T09:54:34;7.80;99.90
5164;DHT22;2601;50.224;10.126;2022-11-11T09:57:09;8.00;99.90
5164;DHT22;2601;50.224;10.126;2022-11-11T09:59:48;8.20;99.90
5164;DHT22;2601;50.224;10.126;2022-11-11T10:05:11;7.90;99.90
5164;DHT22;2601;50.224;10.126;2022-11-11T10:10:29;8.20;99.90
5164;DHT22;2601;50.224;10.126;2022-11-11T10:12:58;8.10;99.90
5164;DHT22;2601;50.224;10.126;2022-11-11T10:15:29;8.00;99.90
5164;DHT22;2601;50.224;10.126;2022-11-11T10:18:26;8.10;99.90
5164;DHT22;2601;50.224;10.126;2022-11-11T10:20:54;8.30;99.90
5164;DHT22;2601;50.224;10.126;2022-11-11T10:23:32;8.30;99.90
5164;DHT22;2601;50.224;10.126;2022-11-11T10:26:20;8.10;99.90
5164;DHT22;2601;50.224;10.126;2022-11-11T10:28:52;8.00;99.90
5164;DHT22;2601;50.224;10.126;2022-11-11T10:31:20;8.10;99.90
5164;DHT22;2601;50.224;10.126;2022-11-11T10:34:00;8.40;99.90
5164;DHT22;2601;50.224;10.126;2022-11-11T10:36:29;8.70;99.90
5164;DHT22;2601;50.224;10.126;2022-11-11T10:39:00;9.00;99.90
5164;DHT22;2601;50.224;10.126;2022-11-11T10:44:26;9.30;99.90
5164;DHT22;2601;50.224;10.126;2022-11-11T10:49:23;9.60;99.90
5164;DHT22;2601;50.224;10.126;2022-11-11T10:51:58;9.60;99.90
5164;DHT22;2601;50.224;10.126;2022-11-11T10:54:40;9.40;99.90
5164;DHT22;2601;50.224;10.126;2022-11-11T10:59:52;9.20;99.90
5164;DHT22;2601;50.224;10.126;2022-11-11T11:02:22;9.50;99.90
5164;DHT22;2601;50.224;10.126;2022-11-11T11:04:52;9.60;99.90
5164;DHT22;2601;50.224;10.126;2022-11-11T11:07:43;9.40;99.90
5164;DHT22;2601;50.224;10.126;2022-11-11T11:13:30;8.60;99.90
5164;DHT22;2601;50.224;10.126;2022-11-11T11:15:40;8.30;99.90
5164;DHT22;2601;50.224;10.126;2022-11-11T11:18:14;8.30;99.90
5164;DHT22;2601;50.224;10.126;2022-11-11T11:21:04;8.40;99.90
5164;DHT22;2601;50.224;10.126;2022-11-11T11:23:39;8.50;99.90
5164;DHT22;2601;50.224;10.126;2022-11-11T11:26:06;8.70;99.90
5164;DHT22;2601;50.224;10.126;2022-11-11T11:28:32;8.80;99.90
5164;DHT22;2601;50.224;10.126;2022-11-11T11:31:02;8.90;99.90
5164;DHT22;2601;50.224;10.126;2022-11-11T11:33:54;8.90;99.90
5164;DHT22;2601;50.224;10.126;2022-11-11T11:36:20;9.10;99.90
5164;DHT22;2601;50.224;10.126;2022-11-11T11:38:48;9.00;99.90
5164;DHT22;2601;50.224;10.126;2022-11-11T11:41:21;8.90;99.90
5164;DHT22;2601;50.224;10.126;2022-11-11T11:43:59;9.10;99.90
5164;DHT22;2601;50.224;10.126;2022-11-11T11:46:28;9.00;99.90
5164;DHT22;2601;50.224;10.126;2022-11-11T11:52:28;8.90;99.90
5164;DHT22;2601;50.224;10.126;2022-11-11T11:55:09;8.90;99.90
5164;DHT22;2601;50.224;10.126;2022-11-11T12:00:22;9.40;99.90
5164;DHT22;2601;50.224;10.126;2022-11-11T12:03:15;9.60;99.90
5164;DHT22;2601;50.224;10.126;2022-11-11T12:05:58;9.90;99.90
5164;DHT22;2601;50.224;10.126;2022-11-11T12:14:04;9.80;99.90
5164;DHT22;2601;50.224;10.126;2022-11-11T12:16:49;9.90;99.90
5164;DHT22;2601;50.224;10.126;2022-11-11T12:35:37;9.50;99.90
5164;DHT22;2601;50.224;10.126;2022-11-11T12:44:10;9.20;99.90
5164;DHT22;2601;50.224;10.126;2022-11-11T12:52:23;9.00;99.90
5164;DHT22;2601;50.224;10.126;2022-11-11T13:00:32;8.90;99.90
5164;DHT22;2601;50.224;10.126;2022-11-11T13:03:31;8.70;99.90
5164;DHT22;2601;50.224;10.126;2022-11-11T13:17:17;8.80;99.90
5164;DHT22;2601;50.224;10.126;2022-11-11T13:19:45;8.90;99.90
5164;DHT22;2601;50.224;10.126;2022-11-11T13:22:28;9.10;99.90
5164;DHT22;2601;50.224;10.126;2022-11-11T13:24:55;9.20;99.90
5164;DHT22;2601;50.224;10.126;2022-11-11T13:27:46;9.20;99.90
5164;DHT22;2601;50.224;10.126;2022-11-11T13:30:20;9.20;99.90
5164;DHT22;2601;50.224;10.126;2022-11-11T13:32:58;9.30;99.90
5164;DHT22;2601;50.224;10.126;2022-11-11T13:35:40;9.30;99.90
5164;DHT22;2601;50.224;10.126;2022-11-11T13:38:13;9.10;99.90
5164;DHT22;2601;50.224;10.126;2022-11-11T13:40:51;9.00;99.90
5164;DHT22;2601;50.224;10.126;2022-11-11T13:43:24;8.90;99.90
5164;DHT22;2601;50.224;10.126;2022-11-11T13:45:53;8.80;99.90
5164;DHT22;2601;50.224;10.126;2022-11-11T13:50:49;8.70;99.90
5164;DHT22;2601;50.224;10.126;2022-11-11T13:53:31;8.80;99.90
5164;DHT22;2601;50.224;10.126;2022-11-11T13:56:01;8.70;99.90
5164;DHT22;2601;50.224;10.126;2022-11-11T13:58:39;8.70;99.90
5164;DHT22;2601;50.224;10.126;2022-11-11T14:01:08;8.60;99.90
5164;DHT22;2601;50.224;10.126;2022-11-11T14:13:50;8.60;99.90
5164;DHT22;2601;50.224;10.126;2022-11-11T14:21:55;8.40;99.90
5164;DHT22;2601;50.224;10.126;2022-11-11T14:24:38;8.30;99.90
5164;DHT22;2601;50.224;10.126;2022-11-11T14:29:37;8.50;99.90
5164;DHT22;2601;50.224;10.126;2022-11-11T14:35:20;8.30;99.90
5164;DHT22;2601;50.224;10.126;2022-11-11T14:40:29;8.20;99.90
5164;DHT22;2601;50.224;10.126;2022-11-11T14:42:57;8.20;99.90
5164;DHT22;2601;50.224;10.126;2022-11-11T14:47:51;8.10;99.90
5164;DHT22;2601;50.224;10.126;2022-11-11T14:53:00;8.10;99.90
5164;DHT22;2601;50.224;10.126;2022-11-11T14:55:37;8.20;99.90
5164;DHT22;2601;50.224;10.126;2022-11-11T14:58:13;8.10;99.90
5164;DHT22;2601;50.224;10.126;2022-11-11T15:00:56;8.00;99.90
5164;DHT22;2601;50.224;10.126;2022-11-11T15:03:31;7.90;99.90
5164;DHT22;2601;50.224;10.126;2022-11-11T15:06:25;7.80;99.90
5164;DHT22;2601;50.224;10.126;2022-11-11T15:17:27;7.70;99.90
5164;DHT22;2601;50.224;10.126;2022-11-11T15:38:34;7.50;99.90
5164;DHT22;2601;50.224;10.126;2022-11-11T15:41:00;7.50;99.90
5164;DHT22;2601;50.224;10.126;2022-11-11T15:43:28;7.70;99.90
5164;DHT22;2601;50.224;10.126;2022-11-11T15:46:00;7.60;99.90
5164;DHT22;2601;50.224;10.126;2022-11-11T15:48:34;7.70;99.90
5164;DHT22;2601;50.224;10.126;2022-11-11T15:53:47;7.50;99.90
5164;DHT22;2601;50.224;10.126;2022-11-11T15:56:30;7.40;99.90
5164;DHT22;2601;50.224;10.126;2022-11-11T15:58:56;7.60;99.90
5164;DHT22;2601;50.224;10.126;2022-11-11T16:01:25;7.50;99.90
5164;DHT22;2601;50.224;10.126;2022-11-11T16:03:53;7.50;99.90
5164;DHT22;2601;50.224;10.126;2022-11-11T16:06:19;7.50;99.90
5164;DHT22;2601;50.224;10.126;2022-11-11T16:08:47;7.40;99.90
5164;DHT22;2601;50.224;10.126;2022-11-11T16:11:15;7.40;99.90
5164;DHT22;2601;50.224;10.126;2022-11-11T16:14:02;7.40;99.90
5164;DHT22;2601;50.224;10.126;2022-11-11T16:16:46;7.40;99.90
5164;DHT22;2601;50.224;10.126;2022-11-11T16:19:33;7.40;99.90
5164;DHT22;2601;50.224;10.126;2022-11-11T16:22:14;7.40;99.90
5164;DHT22;2601;50.224;10.126;2022-11-11T16:24:41;7.40;99.90
5164;DHT22;2601;50.224;10.126;2022-11-11T16:27:16;7.30;99.90
5164;DHT22;2601;50.224;10.126;2022-11-11T16:29:42;7.40;99.90
5164;DHT22;2601;50.224;10.126;2022-11-11T16:34:50;7.30;99.90
5164;DHT22;2601;50.224;10.126;2022-11-11T16:37:19;7.20;99.90
5164;DHT22;2601;50.224;10.126;2022-11-11T16:39:45;7.20;99.90
5164;DHT22;2601;50.224;10.126;2022-11-11T16:42:24;7.30;99.90
5164;DHT22;2601;50.224;10.126;2022-11-11T16:44:57;7.30;99.90
5164;DHT22;2601;50.224;10.126;2022-11-11T16:50:18;7.30;99.90
5164;DHT22;2601;50.224;10.126;2022-11-11T16:53:01;7.30;99.90
5164;DHT22;2601;50.224;10.126;2022-11-11T16:55:43;7.30;99.90
5164;DHT22;2601;50.224;10.126;2022-11-11T16:58:14;7.30;99.90
5164;DHT22;2601;50.224;10.126;2022-11-11T17:00:41;7.20;99.90
5164;DHT22;2601;50.224;10.126;2022-11-11T17:03:20;7.20;99.90
5164;DHT22;2601;50.224;10.126;2022-11-11T17:05:51;7.10;99.90
5164;DHT22;2601;50.224;10.126;2022-11-11T17:08:33;7.00;99.90
5164;DHT22;2601;50.224;10.126;2022-11-11T17:11:01;7.10;99.90
5164;DHT22;2601;50.224;10.126;2022-11-11T17:13:27;7.10;99.90
5164;DHT22;2601;50.224;10.126;2022-11-11T17:15:54;7.20;99.90
5164;DHT22;2601;50.224;10.126;2022-11-11T17:18:20;7.20;99.90
5164;DHT22;2601;50.224;10.126;2022-11-11T17:20:47;7.20;99.90
5164;DHT22;2601;50.224;10.126;2022-11-11T17:23:12;7.20;99.90
5164;DHT22;2601;50.224;10.126;2022-11-11T17:25:38;7.30;99.90
5164;DHT22;2601;50.224;10.126;2022-11-11T17:28:04;7.20;99.90
5164;DHT22;2601;50.224;10.126;2022-11-11T17:30:30;7.20;99.90
5164;DHT22;2601;50.224;10.126;2022-11-11T17:32:56;7.20;99.90
5164;DHT22;2601;50.224;10.126;2022-11-11T17:35:21;7.10;99.90
5164;DHT22;2601;50.224;10.126;2022-11-11T17:37:47;7.10;99.90
5164;DHT22;2601;50.224;10.126;2022-11-11T17:40:13;7.10;99.90
5164;DHT22;2601;50.224;10.126;2022-11-11T17:42:39;7.00;99.90
5164;DHT22;2601;50.224;10.126;2022-11-11T17:45:05;7.10;99.90
5164;DHT22;2601;50.224;10.126;2022-11-11T17:47:32;7.00;99.90
5164;DHT22;2601;50.224;10.126;2022-11-11T17:49:58;7.00;99.90
5164;DHT22;2601;50.224;10.126;2022-11-11T17:52:24;6.90;99.90
5164;DHT22;2601;50.224;10.126;2022-11-11T17:54:50;6.90;99.90
5164;DHT22;2601;50.224;10.126;2022-11-11T17:57:16;6.90;99.90
5164;DHT22;2601;50.224;10.126;2022-11-11T17:59:42;6.90;99.90
5164;DHT22;2601;50.224;10.126;2022-11-11T18:02:12;6.90;99.90
5164;DHT22;2601;50.224;10.126;2022-11-11T18:04:39;6.90;99.90
5164;DHT22;2601;50.224;10.126;2022-11-11T18:07:06;6.90;99.90
5164;DHT22;2601;50.224;10.126;2022-11-11T18:09:32;6.80;99.90
5164;DHT22;2601;50.224;10.126;2022-11-11T18:11:57;6.70;99.90
5164;DHT22;2601;50.224;10.126;2022-11-11T18:14:23;6.80;99.90
5164;DHT22;2601;50.224;10.126;2022-11-11T18:16:49;6.70;99.90
5164;DHT22;2601;50.224;10.126;2022-11-11T18:19:15;6.70;99.90
5164;DHT22;2601;50.224;10.126;2022-11-11T18:21:40;6.80;99.90
5164;DHT22;2601;50.224;10.126;2022-11-11T18:24:08;6.70;99.90
5164;DHT22;2601;50.224;10.126;2022-11-11T18:26:35;6.70;99.90
5164;DHT22;2601;50.224;10.126;2022-11-11T18:29:04;6.80;99.90
5164;DHT22;2601;50.224;10.126;2022-11-11T18:31:30;6.90;99.90
5164;DHT22;2601;50.224;10.126;2022-11-11T18:33:56;6.80;99.90
5164;DHT22;2601;50.224;10.126;2022-11-11T18:36:22;6.80;99.90
5164;DHT22;2601;50.224;10.126;2022-11-11T18:38:48;6.80;99.90
5164;DHT22;2601;50.224;10.126;2022-11-11T18:41:18;6.70;99.90
5164;DHT22;2601;50.224;10.126;2022-11-11T18:43:49;6.70;99.90
5164;DHT22;2601;50.224;10.126;2022-11-11T18:46:17;6.70;99.90
5164;DHT22;2601;50.224;10.126;2022-11-11T18:48:43;6.70;99.90
5164;DHT22;2601;50.224;10.126;2022-11-11T18:51:12;6.70;99.90
5164;DHT22;2601;50.224;10.126;2022-11-11T18:53:39;6.60;99.90
5164;DHT22;2601;50.224;10.126;2022-11-11T18:56:16;6.50;99.90
5164;DHT22;2601;50.224;10.126;2022-11-11T18:58:53;6.40;99.90
5164;DHT22;2601;50.224;10.126;2022-11-11T19:01:21;6.40;99.90